Notice: iconv(): Detected an illegal character in input string in /home/carquefo/www/weather28/wsLangFunctions.php on line 115

Notice: iconv(): Detected an illegal character in input string in /home/carquefo/www/weather28/wsLangFunctions.php on line 115
Météorologique de l'aéroport - Carquefoumeteo
Notice: A non well formed numeric value encountered in /home/carquefo/www/weather28/scriptsWD/tagsWD.php on line 282

Notice: A non well formed numeric value encountered in /home/carquefo/www/weather28/scriptsWD/tagsWD.php on line 283

Notice: Undefined index: wuKey in /home/carquefo/www/weather28/wuforecast/wualmanac.php on line 27

Il s'agit d'un problème de communication. Allez directement sur le site Meteoalarm : www.meteoalarm.eu et vérifier les avertissements météorologiques..



Visitez nos sites météorologiques autres:

Template documentation
and downloads

And another site


Vous trouverez notre info météo Également à:

WeatherCloud

Weather Underground

AWEKAS



Rapports METAR proximité

   
EHVK - Volkel Rnlafb, Netherlands
Distance: SO 18 km
Mise à jour: 19-05-2024 07:39
Brouillard, Nuageux  
Brouillard, Nuageux  
   Vent: OSO 9.3 km/h
Vent: OSO 9.3 km/h
Température: 14°C
Point de rosée: 13°C
Humidité: 94%
Baromètre: 1010 hPa
Nuageux: Nuageux
visibilité: 2 km
Détails des nuages: Peu de nuages 400 ft,
Nuageux 500 ft,
Nuageux 600 ft
EHVK 190539Z AUTO 24005KT 220V290 1700 BR FEW004 BKN005 OVC006 14/13 Q1010 YLO
EDLV - Niederrhein, Germany
Distance: SE 25 km
Mise à jour: 19-05-2024 07:20
Brouillard, Nuageux  
Brouillard, Nuageux  
   Vent: Ouest 11.1 km/h
Vent: Ouest 11.1 km/h
Température: 14°C
Point de rosée: 14°C
Humidité: 100%
Baromètre: 1010 hPa
Nuageux: Nuageux
visibilité: 2 km
Détails des nuages: Nuageux 500 ft
EDLV 190520Z 26006KT 2000 BR OVC005 14/14 Q1010
EHDL - Deelen Rnlafb, Netherlands
Distance: N 35 km
Mise à jour: 19-05-2024 07:25
Brouillard, Nuageux  
Brouillard, Nuageux  
   Vent: ONO 3.7 km/h
Vent: ONO 3.7 km/h
Température: 12°C
Point de rosée: 11°C
Humidité: 94%
Baromètre: 1010 hPa
Nuageux: Nuageux
visibilité: 7 km
Détails des nuages: Nuageux 10000 ft
EHDL 190525Z AUTO 30002KT 7000 BR OVC100 12/11 Q1010 WHT
EHEH - Eindhoven Rnlafb, Netherlands
Distance: SO 48 km
Mise à jour: 19-05-2024 07:29
Brouillard, Nuageux  
Brouillard, Nuageux  
   Vent: Ouest 9.3 km/h
Vent: Ouest 9.3 km/h
Température: 13°C
Point de rosée: 13°C
Humidité: 100%
Baromètre: 1011 hPa
Nuageux: Nuageux
visibilité: 2 km
Détails des nuages: Nuageux 300 ft,
Nuageux 400 ft
EHEH 190529Z AUTO 27005KT 220V350 2300 R21/1900N BR BKN003 OVC004 13/13 Q1011 YLO TEMPO 1500 BR BKN003 BKN004
EHGR - Gilze-Rijen Rnla, Netherlands
Distance: OSO 70 km
Mise à jour: 19-05-2024 07:41
Brouillard, Nuageux  
Brouillard, Nuageux  
   Vent: Ouest 9.3 km/h
Vent: Ouest 9.3 km/h
Température: 13°C
Point de rosée: 12°C
Humidité: 94%
Baromètre: 1011 hPa
Nuageux: Nuageux
visibilité: 1 km
Détails des nuages: Nuageux 100 ft
EHGR 190541Z AUTO 26005KT 230V300 0750 FG VV001 13/12 Q1011 RED
EBBL - Kleine-Brogel(Ba, Belgium
Distance: SSO 71 km
Mise à jour: 19-05-2024 07:38
Pluie battante, Nuageux  
Pluie battante, Nuageux  
   Vent: SSO 7.4 km/h
Vent: SSO 7.4 km/h
Baromètre: 1011 hPa
Nuageux: Nuageux
visibilité: 1 km
Détails des nuages: Nuageux 400 ft,
Nuageux 3200 ft
EBBL 190538Z AUTO 21004KT 1100 +RA BKN004/// OVC032/// ///// Q1011 AMB

Script développé par  Saratoga-weather.org Adapté pour le modèle par  Weerstation Leuven

Équipement que nous utilisons:

Station de Météo
Davis VP2

Programme Météo
Weather Display

Davis VP2

Weather Display